KNUW/NUW METAR and TAF weather

Enter ICAO airport designator
Station Type Date Time Source
KNUW METAR 2019/04/19 08:56 UTC NOAA

KNUW 190856Z 16007KT 10SM FEW008 BKN013 OVC025 13/11 A3004 RMK AO2 RAE36 SLP170 P0001 60001 T01330106 56014 $


Station Type Date Time Source
KNUW Decoded METAR 2019/04/19 08:56 UTC NOAA

NAS WHIDBEY ISLAND, WA, United States (KNUW) 48-21N 122-39W 8M
Apr 19, 2019 - 04:56 AM EDT / 2019.04.19 0856 UTC
Wind: from the SSE (160 degrees) at 8 MPH (7 KT):0
Visibility: 10 mile(s):0
Sky conditions: overcast
Precipitation last hour: 0.01 inches
Temperature: 55.9 F (13.3 C)
Dew Point: 51.1 F (10.6 C)
Relative Humidity: 83%
Pressure (altimeter): 30.04 in. Hg (1017 hPa)
Pressure tendency: 0.04 inches (1.4 hPa) lower than three hours ago
ob: KNUW 190856Z 16007KT 10SM FEW008 BKN013 OVC025 13/11 A3004 RMK AO2 RAE36 SLP170 P0001 60001 T01330106 56014
cycle: 9

Station Type Date Time Source
KNUW TAF 2019/04/19 07:03 UTC NOAA

TAF TAF KNUW 1907/2007 17007KT 9999 -RA SCT010 BKN020 OVC050 640809 641703 541008 QNH2999INS
TEMPO 1907/1911 8000 -RA BR FEW003 BKN006 OVC020
FM191100 25009KT 9999 -SHRA SCT010 BKN020 OVC050 640609 641505 551008 QNH2996INS
TEMPO 1911/1915 6000 -SHRA BKN008 OVC015
BECMG 1922/1923 25009KT 9999 NSW SCT025 BKN060 BKN250 600000 531404 QNH2999INS
FM200200 VRB06KT 9999 FEW030 SCT060 500000 QNH3002INS T07/1913Z T17/1923Z FS30135

Example: see airport list